Cuzco, Peru

1:04 AM PET on August 23, 2014 (GMT -0500)
Alejandro Velazco Astete | Change Station
CLOSE
Current Station
Airport
Location: Cuzco,
Elevation: 10659 ft
Nearby Weather Stations

Elev 10659 ft 13.54 °S, 71.94 °W | Updated 4 minutes ago

Clear
Clear
37 °F
Feels Like 37 °F
N
0
Wind Variable Wind from North

Today
High -- | Low -- °F
--% Chance of Precip.
Yesterday
High -- | Low -- °F
Precip. -- in
5:58 AM 5:42 PM
Waning Crescent, 5% visible
Pressure 30.48 in
Visibility 6.2 miles
Clouds
Dew Point 19 °F
Humidity 48%
Rainfall 0.00 in
Snow Depth Not available.
UV Not available.
Pollen Not available.
Air Quality Not available.
Flu Activity Not available.
METAR SPZO 230600Z 00000KT 9999 NSC 03/M07 Q1032 RMK PP000

More Conditions Fewer Conditions

Pressure 30.48 in
Visibility 6.2 miles
Clouds
Dew Point 19 °F
Humidity 48%
Rainfall 0.00 in
Snow Depth Not available.
UV Not available.
Pollen Not available.
Air Quality Not available.
Flu Activity Not available.
METAR SPZO 230600Z 00000KT 9999 NSC 03/M07 Q1032 RMK PP000

More Conditions Fewer Conditions

10-Day Weather Forecast

Almanac

Astronomy

Aug. 23, 2014 Rise Set
Actual Time 5:58 AM PET 5:42 PM PET
Civil Twilight 5:36 AM PET 6:04 PM PET
Nautical Twilight 5:11 AM PET 6:29 PM PET
Astronomical Twilight 4:46 AM PET 6:54 PM PET
Moon 4:24 AM PET 4:19 PM PET
Length of Visible Light 12h 28m
Length of Day
11h 44m
Tomorrow will be 0m 40s longer.
Waning Crescent, 5% of the Moon is Illuminated
Today
Waning Crescent
Aug 25
New
Sep 2
First Quarter
Sep 8
Full
Sep 15
Last Quarter

Yesterday's Extremes

Country Highs Country Lows

Community

WunderPhotos

Upload Photos

1,746,372 photos uploaded!

WunderBlogs® & News

By Dr. Jeff Masters
Director of Meteorology, Weather Underground
By Kari Strenfel
Meteorologist, Weather Underground
By Christopher C. Burt
Weather Historian, Weather Underground
August 23, 2014
August 23, 2014
August 22, 2014

Nearby

Snow Depth

Not available.

Earthquake Activity

City Distance Mag. Time & Date
No recent earthquake activity has been reported nearby.
Minimum magnitude displayed is 2.5.

Coastal Water Temperatures

Place Temperature
No Stations Reporting

Nearby Weather Stations